createdAt,value
2019-04-30T00:01:18.831Z,1.90
2019-04-30T00:03:43.640Z,1.60
2019-04-30T00:06:10.027Z,1.27
2019-04-30T00:08:39.160Z,1.40
2019-04-30T00:11:02.705Z,1.60
2019-04-30T00:13:29.045Z,1.10
2019-04-30T00:15:58.762Z,1.20
2019-04-30T00:18:21.860Z,1.50
2019-04-30T00:20:48.226Z,1.37
2019-04-30T00:23:17.704Z,1.20
2019-04-30T00:25:40.927Z,1.23
2019-04-30T00:28:08.777Z,1.33
2019-04-30T00:30:35.044Z,1.30
2019-04-30T00:33:00.163Z,1.37
2019-04-30T00:35:26.488Z,1.37
2019-04-30T00:37:57.632Z,1.23
2019-04-30T00:40:21.778Z,1.20
2019-04-30T00:42:45.822Z,1.33
2019-04-30T00:45:11.887Z,1.20
2019-04-30T00:47:39.588Z,1.20
2019-04-30T00:50:04.966Z,1.30
2019-04-30T00:52:33.962Z,1.00
2019-04-30T00:55:00.338Z,1.37
2019-04-30T00:57:26.337Z,1.10
2019-04-30T00:59:50.097Z,1.07
2019-04-30T01:02:20.132Z,1.20
2019-04-30T01:04:44.861Z,1.23
2019-04-30T01:07:09.137Z,1.07
2019-04-30T01:09:35.517Z,1.03
2019-04-30T01:12:01.867Z,1.20
2019-04-30T01:14:31.882Z,1.10
2019-04-30T01:16:54.643Z,1.10
2019-04-30T01:19:29.709Z,1.10
2019-04-30T01:21:49.120Z,1.00
2019-04-30T01:24:13.787Z,1.00
2019-04-30T01:26:40.110Z,1.00
2019-04-30T01:31:37.396Z,1.07
2019-04-30T01:33:59.251Z,0.97
2019-04-30T01:36:25.543Z,0.97
2019-04-30T01:38:52.576Z,0.80
2019-04-30T01:41:20.294Z,0.90
2019-04-30T01:43:44.674Z,0.80
2019-04-30T01:46:13.865Z,1.00
2019-04-30T01:48:39.206Z,1.00
2019-04-30T01:51:03.659Z,0.93
2019-04-30T01:53:30.113Z,0.80
2019-04-30T01:55:56.505Z,1.00
2019-04-30T01:58:22.890Z,0.90
2019-04-30T02:00:49.442Z,0.90
2019-04-30T02:03:15.590Z,0.90
2019-04-30T02:05:41.990Z,0.80
2019-04-30T02:08:08.526Z,0.90
2019-04-30T02:10:34.920Z,0.83
2019-04-30T02:13:01.252Z,0.90
2019-04-30T02:15:29.178Z,1.07
2019-04-30T02:17:53.951Z,0.90
2019-04-30T02:20:20.329Z,0.80
2019-04-30T02:22:48.493Z,0.90
2019-04-30T02:25:13.031Z,0.77
2019-04-30T02:27:39.442Z,0.90
2019-04-30T02:30:05.760Z,0.80
2019-04-30T02:32:32.086Z,0.90
2019-04-30T02:34:59.801Z,0.90
2019-04-30T02:37:24.845Z,0.93
2019-04-30T02:39:51.329Z,0.80
2019-04-30T02:42:20.106Z,0.90
2019-04-30T02:44:44.070Z,1.10
2019-04-30T02:47:10.412Z,0.80
2019-04-30T02:49:36.809Z,0.90
2019-04-30T02:52:03.106Z,0.83
2019-04-30T02:54:29.791Z,1.00
2019-04-30T02:56:55.913Z,0.80
2019-04-30T02:59:22.211Z,0.90
2019-04-30T03:01:50.235Z,0.90
2019-04-30T03:06:41.314Z,0.87
2019-04-30T03:09:09.989Z,0.90
2019-04-30T03:11:33.937Z,0.80
2019-04-30T03:14:00.276Z,0.80
2019-04-30T03:16:26.632Z,0.90
2019-04-30T03:18:52.986Z,0.90
2019-04-30T03:21:19.419Z,0.87
2019-04-30T03:23:45.706Z,1.00
2019-04-30T03:28:39.696Z,1.10
2019-04-30T03:31:05.113Z,0.90
2019-04-30T03:33:32.692Z,1.13
2019-04-30T03:36:01.766Z,0.93
2019-04-30T03:38:23.765Z,1.67
2019-04-30T03:40:50.383Z,0.90
2019-04-30T03:43:16.586Z,0.90
2019-04-30T03:45:42.943Z,0.83
2019-04-30T03:48:10.203Z,0.90
2019-04-30T03:50:49.117Z,0.90
2019-04-30T03:53:01.998Z,0.90
2019-04-30T03:55:29.935Z,0.93
2019-04-30T03:57:54.749Z,1.00
2019-04-30T04:00:21.069Z,0.93
2019-04-30T04:02:49.871Z,0.90
2019-04-30T04:05:13.789Z,0.90
2019-04-30T04:07:40.202Z,1.00
2019-04-30T04:10:06.499Z,1.00
2019-04-30T04:12:32.826Z,1.00
2019-04-30T04:15:00.752Z,1.13
2019-04-30T04:17:25.588Z,1.13
2019-04-30T04:19:51.905Z,1.20
2019-04-30T04:22:20.695Z,1.13
2019-04-30T04:24:44.635Z,1.30
2019-04-30T04:27:12.551Z,1.10
2019-04-30T04:29:40.383Z,1.37
2019-04-30T04:32:05.298Z,1.40
2019-04-30T04:34:31.713Z,1.07
2019-04-30T04:37:00.033Z,1.50
2019-04-30T04:39:24.475Z,1.50
2019-04-30T04:41:50.821Z,1.20
2019-04-30T04:44:19.687Z,1.17
2019-04-30T04:46:43.538Z,0.90
2019-04-30T04:49:09.945Z,1.07
2019-04-30T04:51:39.392Z,1.13
2019-04-30T04:54:03.317Z,0.90
2019-04-30T04:56:30.414Z,1.00
2019-04-30T04:58:55.373Z,1.00
2019-04-30T05:03:48.997Z,1.07
2019-04-30T05:06:14.533Z,1.20
2019-04-30T05:08:40.938Z,1.10
2019-04-30T05:11:09.221Z,1.00
2019-04-30T05:13:34.754Z,1.47
2019-04-30T05:16:00.185Z,1.00
2019-04-30T05:18:26.480Z,1.10
2019-04-30T05:20:52.906Z,1.17
2019-04-30T05:23:19.538Z,1.10
2019-04-30T05:25:45.660Z,1.00
2019-04-30T05:28:11.987Z,1.00
2019-04-30T05:30:39.319Z,1.10
2019-04-30T05:33:04.692Z,1.20
2019-04-30T05:35:31.246Z,1.00
2019-04-30T05:37:59.178Z,1.23
2019-04-30T05:40:23.796Z,1.20
2019-04-30T05:42:50.128Z,1.20
2019-04-30T05:45:16.472Z,1.30
2019-04-30T05:47:42.943Z,0.90
2019-04-30T05:50:09.376Z,1.00
2019-04-30T05:52:35.715Z,1.10
2019-04-30T05:55:02.054Z,1.17
2019-04-30T05:57:29.481Z,1.07
2019-04-30T05:59:54.745Z,1.00
2019-04-30T06:02:21.100Z,1.00
2019-04-30T06:04:48.883Z,1.70
2019-04-30T06:07:13.786Z,1.10
2019-04-30T06:09:40.168Z,1.40
2019-04-30T06:12:09.461Z,1.63
2019-04-30T06:14:33.189Z,2.37
2019-04-30T06:16:59.769Z,2.43
2019-04-30T06:21:52.305Z,2.37
2019-04-30T06:24:18.859Z,2.40
2019-04-30T06:26:44.984Z,2.30
2019-04-30T06:29:11.320Z,2.30
2019-04-30T06:31:40.092Z,2.30
2019-04-30T06:34:03.990Z,3.20
2019-04-30T06:36:30.317Z,2.50
2019-04-30T06:38:58.856Z,2.67
2019-04-30T06:41:22.995Z,3.50
2019-04-30T06:43:49.311Z,2.63
2019-04-30T06:46:15.689Z,3.00
2019-04-30T06:48:42.164Z,3.30
2019-04-30T06:51:09.095Z,2.70
2019-04-30T06:53:34.807Z,2.63
2019-04-30T06:56:01.133Z,2.40
2019-04-30T06:58:29.160Z,2.80
2019-04-30T07:00:53.817Z,2.90
2019-04-30T07:03:20.147Z,3.50
2019-04-30T07:05:48.621Z,3.20
2019-04-30T07:08:12.913Z,3.10
2019-04-30T07:10:41.439Z,3.23
2019-04-30T07:13:05.657Z,3.20
2019-04-30T07:15:31.938Z,3.50
2019-04-30T07:17:59.135Z,3.60
2019-04-30T07:20:24.650Z,3.20
2019-04-30T07:22:58.923Z,3.30
2019-04-30T07:25:19.371Z,3.50
2019-04-30T07:27:43.726Z,3.00
2019-04-30T07:35:15.083Z,3.27
2019-04-30T07:37:41.415Z,2.73
2019-04-30T07:40:09.167Z,3.03
2019-04-30T07:42:38.224Z,3.37
2019-04-30T07:45:00.869Z,4.20
2019-04-30T07:47:29.508Z,3.60
2019-04-30T07:49:55.893Z,3.77
2019-04-30T07:52:21.958Z,4.27
2019-04-30T07:54:45.900Z,4.07
2019-04-30T07:57:12.252Z,3.97
2019-04-30T07:59:39.655Z,3.37
2019-04-30T08:02:13.706Z,3.70
2019-04-30T08:04:31.297Z,3.50
2019-04-30T08:09:39.107Z,3.40
2019-04-30T08:11:59.318Z,3.70
2019-04-30T08:14:25.672Z,3.57
2019-04-30T08:16:51.990Z,4.13
2019-04-30T08:19:19.133Z,3.30
2019-04-30T08:21:44.660Z,3.00
2019-04-30T08:24:11.018Z,3.13
2019-04-30T08:26:37.350Z,3.20
2019-04-30T08:29:03.695Z,3.10
2019-04-30T08:31:30.057Z,3.10
2019-04-30T08:33:56.464Z,2.93
2019-04-30T08:36:22.814Z,2.87
2019-04-30T08:38:49.638Z,2.90
2019-04-30T08:41:15.546Z,2.73
2019-04-30T08:43:41.906Z,3.70
2019-04-30T08:46:09.387Z,3.10
2019-04-30T08:48:46.153Z,2.93
2019-04-30T08:51:00.899Z,2.53
2019-04-30T08:53:32.205Z,2.87
2019-04-30T08:55:53.629Z,3.20
2019-04-30T08:58:22.729Z,2.70
2019-04-30T09:00:49.082Z,2.57
2019-04-30T09:03:15.404Z,2.90
2019-04-30T09:05:41.752Z,2.70
2019-04-30T09:10:34.429Z,2.87
2019-04-30T09:13:00.820Z,3.23
2019-04-30T09:15:28.933Z,2.87
2019-04-30T09:18:03.222Z,2.20
2019-04-30T09:20:19.767Z,2.30
2019-04-30T09:22:46.107Z,2.83
2019-04-30T09:25:12.491Z,2.67
2019-04-30T09:27:39.741Z,2.70
2019-04-30T09:30:05.246Z,2.80
2019-04-30T09:32:31.756Z,2.70
2019-04-30T09:34:58.718Z,2.80
2019-04-30T09:37:24.418Z,2.80
2019-04-30T09:39:50.760Z,2.97
2019-04-30T09:42:19.260Z,2.67
2019-04-30T09:44:43.424Z,2.70
2019-04-30T09:47:09.779Z,2.70
2019-04-30T09:49:36.111Z,2.50
2019-04-30T09:54:31.785Z,2.63
2019-04-30T09:56:58.987Z,2.50
2019-04-30T09:59:24.139Z,2.87
2019-04-30T10:01:50.476Z,2.77
2019-04-30T10:04:17.752Z,2.80
2019-04-30T10:06:43.181Z,2.97
2019-04-30T10:09:09.760Z,2.70
2019-04-30T10:11:35.850Z,2.97
2019-04-30T10:14:02.192Z,2.93
2019-04-30T10:16:29.635Z,2.80
2019-04-30T10:18:54.932Z,2.50
2019-04-30T10:21:21.260Z,2.87
2019-04-30T10:23:47.725Z,2.37
2019-04-30T10:26:14.064Z,2.43
2019-04-30T10:28:40.430Z,2.20
2019-04-30T10:31:06.791Z,2.40
2019-04-30T10:33:33.248Z,2.20
2019-04-30T10:38:25.905Z,2.40
2019-04-30T10:40:52.240Z,2.30
2019-04-30T10:43:19.770Z,2.70
2019-04-30T10:45:44.914Z,2.17
2019-04-30T10:48:11.303Z,2.20
2019-04-30T10:50:40.756Z,2.50
2019-04-30T10:53:03.948Z,2.90
2019-04-30T10:55:31.126Z,2.27
2019-04-30T10:57:56.631Z,2.10
2019-04-30T11:00:23.016Z,2.27
2019-04-30T11:02:49.707Z,2.50
2019-04-30T11:05:15.731Z,2.07
2019-04-30T11:07:42.058Z,2.33
2019-04-30T11:10:08.722Z,2.63
2019-04-30T11:12:34.803Z,2.63
2019-04-30T11:15:01.181Z,2.33
2019-04-30T11:17:29.593Z,2.30
2019-04-30T11:19:54.062Z,2.30
2019-04-30T11:22:20.436Z,2.23
2019-04-30T11:24:56.657Z,2.37
2019-04-30T11:27:13.516Z,2.40
2019-04-30T11:29:39.659Z,2.00
2019-04-30T11:32:05.857Z,2.40
2019-04-30T11:34:32.025Z,2.13
2019-04-30T11:36:58.406Z,2.00
2019-04-30T11:39:24.810Z,2.20
2019-04-30T11:41:51.098Z,2.20
2019-04-30T11:44:28.497Z,2.10
2019-04-30T11:46:45.800Z,2.20
2019-04-30T11:49:10.267Z,2.00
2019-04-30T11:51:36.610Z,2.53
2019-04-30T11:54:02.948Z,2.10
2019-04-30T11:56:29.267Z,1.90
2019-04-30T11:58:55.679Z,2.00
2019-04-30T12:01:22.035Z,2.13
2019-04-30T12:03:49.769Z,2.30
2019-04-30T12:06:14.716Z,2.50
2019-04-30T12:08:41.068Z,2.20
2019-04-30T12:11:07.501Z,2.07
2019-04-30T12:13:33.831Z,2.10
2019-04-30T12:16:00.186Z,2.13
2019-04-30T12:18:26.581Z,2.13
2019-04-30T12:20:52.930Z,2.20
2019-04-30T12:23:19.238Z,2.40
2019-04-30T12:25:45.623Z,2.30
2019-04-30T12:28:11.928Z,2.20
2019-04-30T12:30:39.146Z,2.47
2019-04-30T12:33:04.697Z,2.13
2019-04-30T12:35:31.033Z,2.57
2019-04-30T12:40:28.813Z,2.37
2019-04-30T12:42:50.091Z,2.27
2019-04-30T12:45:16.421Z,2.40
2019-04-30T12:47:42.757Z,1.90
2019-04-30T12:50:09.560Z,2.43
2019-04-30T12:52:35.458Z,2.00
2019-04-30T12:55:01.851Z,1.90
2019-04-30T12:57:29.481Z,2.47
2019-04-30T12:59:54.530Z,1.80
2019-04-30T13:02:20.865Z,2.10
2019-04-30T13:04:49.154Z,2.40
2019-04-30T13:07:14.061Z,1.83
2019-04-30T13:09:40.766Z,2.20
2019-04-30T13:12:06.637Z,2.00
2019-04-30T13:14:35.623Z,2.10
2019-04-30T13:16:59.080Z,2.40
2019-04-30T13:19:25.386Z,2.30
2019-04-30T13:24:18.121Z,2.10
2019-04-30T13:26:44.414Z,2.10
2019-04-30T13:29:10.743Z,2.07
2019-04-30T13:31:37.162Z,2.57
2019-04-30T13:34:03.455Z,2.20
2019-04-30T13:36:29.819Z,2.73
2019-04-30T13:38:56.139Z,2.67
2019-04-30T13:41:22.583Z,2.00
2019-04-30T13:43:48.878Z,2.27
2019-04-30T13:46:15.205Z,2.43
2019-04-30T13:48:41.626Z,2.50
2019-04-30T13:51:07.977Z,2.20
2019-04-30T13:53:34.302Z,1.80
2019-04-30T13:56:00.714Z,2.50
2019-04-30T13:58:27.107Z,2.03
2019-04-30T14:00:53.427Z,1.60
2019-04-30T14:03:19.807Z,2.13
2019-04-30T14:05:46.156Z,2.30
2019-04-30T14:08:12.549Z,2.20
2019-04-30T14:10:39.330Z,2.03
2019-04-30T14:13:05.258Z,2.00
2019-04-30T14:15:31.646Z,2.00
2019-04-30T14:20:24.375Z,2.30
2019-04-30T14:22:50.670Z,1.50
2019-04-30T14:25:17.025Z,1.90
2019-04-30T14:27:49.276Z,1.70
2019-04-30T14:30:09.909Z,1.90
2019-04-30T15:34:30.640Z,1.40
2019-04-30T15:36:58.639Z,1.60
2019-04-30T15:39:23.311Z,1.40
2019-04-30T15:41:50.081Z,1.50
2019-04-30T15:44:16.419Z,1.33
2019-04-30T15:46:43.030Z,1.60
2019-04-30T15:49:09.599Z,1.50
2019-04-30T15:51:35.927Z,1.43
2019-04-30T15:54:02.541Z,1.50
2019-04-30T15:56:35.383Z,1.37
2019-04-30T15:58:55.223Z,1.57
2019-04-30T16:01:21.643Z,2.03
2019-04-30T16:03:48.433Z,1.50
2019-04-30T16:06:14.815Z,1.67
2019-04-30T16:08:41.240Z,1.40
2019-04-30T16:11:10.388Z,1.40
2019-04-30T16:13:34.051Z,1.63
2019-04-30T16:16:00.383Z,1.63
2019-04-30T16:18:28.827Z,1.50
2019-04-30T16:57:06.887Z,1.93
2019-04-30T16:59:31.797Z,1.70
2019-04-30T17:02:00.397Z,1.70
2019-04-30T17:04:24.429Z,1.80
2019-04-30T17:06:50.804Z,1.67
2019-04-30T17:09:17.132Z,1.90
2019-04-30T17:11:43.549Z,1.90
2019-04-30T17:14:09.832Z,1.70
2019-04-30T17:16:36.208Z,1.70
2019-04-30T17:19:02.585Z,1.90
2019-04-30T17:21:29.688Z,1.90
2019-04-30T17:23:55.312Z,1.80
2019-04-30T17:26:21.648Z,2.03
2019-04-30T17:28:49.760Z,1.70
2019-04-30T17:31:14.372Z,1.87
2019-04-30T17:33:40.772Z,2.00
2019-04-30T17:36:08.329Z,1.80
2019-04-30T17:38:33.391Z,2.33
2019-04-30T17:40:59.759Z,2.10
2019-04-30T17:43:26.167Z,1.60
2019-04-30T17:45:52.649Z,1.80
2019-04-30T17:48:18.952Z,2.13
2019-04-30T17:50:45.285Z,2.00
2019-04-30T17:53:11.625Z,1.63
2019-04-30T17:55:39.133Z,1.70
2019-04-30T17:58:04.447Z,1.90
2019-04-30T18:00:30.705Z,1.70
2019-04-30T18:02:57.118Z,1.60
2019-04-30T18:05:23.430Z,1.70
2019-04-30T18:07:49.914Z,1.87
2019-04-30T18:10:16.134Z,2.10
2019-04-30T18:12:42.464Z,1.70
2019-04-30T18:15:08.916Z,1.87
2019-04-30T18:17:35.215Z,1.60
2019-04-30T18:20:01.590Z,1.67
2019-04-30T18:22:29.375Z,1.60
2019-04-30T18:24:54.285Z,1.80
2019-04-30T18:27:21.251Z,1.73
2019-04-30T18:29:47.059Z,1.63
2019-04-30T18:32:13.397Z,1.87
2019-04-30T18:34:39.722Z,1.70
2019-04-30T18:37:06.048Z,1.70
2019-04-30T18:39:32.398Z,1.50
2019-04-30T18:41:58.752Z,1.60
2019-04-30T18:44:25.092Z,1.73
2019-04-30T18:46:51.432Z,1.93
2019-04-30T18:49:18.784Z,1.70
2019-04-30T18:51:44.140Z,1.67
2019-04-30T18:54:10.547Z,1.80
2019-04-30T18:56:38.869Z,1.70
2019-04-30T18:59:03.196Z,1.60
2019-04-30T19:01:29.552Z,1.60
2019-04-30T19:03:55.880Z,1.90
2019-04-30T19:06:25.751Z,1.50
2019-04-30T19:11:14.951Z,1.70
2019-04-30T19:13:41.324Z,1.67
2019-04-30T19:16:19.733Z,1.60
2019-04-30T19:18:34.003Z,1.50
2019-04-30T19:21:00.401Z,1.70
2019-04-30T19:23:26.742Z,1.33
2019-04-30T19:25:53.112Z,1.70
2019-04-30T19:28:20.808Z,1.60
2019-04-30T19:30:55.819Z,1.60
2019-04-30T19:33:12.346Z,1.47
2019-04-30T19:35:38.647Z,1.80
2019-04-30T19:38:05.024Z,1.63
2019-04-30T19:40:31.356Z,1.77
2019-04-30T19:42:57.749Z,1.50
2019-04-30T19:45:24.118Z,1.57
2019-04-30T19:47:50.506Z,1.30
2019-04-30T19:50:19.101Z,1.40
2019-04-30T19:52:43.213Z,1.50
2019-04-30T19:55:09.553Z,1.60
2019-04-30T19:57:35.937Z,1.50
2019-04-30T20:00:02.273Z,1.40
2019-04-30T20:02:29.454Z,1.53
2019-04-30T20:04:55.068Z,1.50
2019-04-30T20:07:21.469Z,1.30
2019-04-30T20:09:58.531Z,1.47
2019-04-30T20:12:14.169Z,1.47
2019-04-30T20:14:40.582Z,1.27
2019-04-30T20:17:08.808Z,1.37
2019-04-30T20:19:33.225Z,1.20
2019-04-30T20:21:59.687Z,1.50
2019-04-30T20:24:25.992Z,1.30
2019-04-30T20:27:04.223Z,1.40
2019-04-30T20:29:18.693Z,1.37
2019-04-30T20:31:45.026Z,1.33
2019-04-30T20:34:11.370Z,1.40
2019-04-30T20:39:04.104Z,1.30
2019-04-30T20:41:30.479Z,1.03
2019-04-30T20:43:56.841Z,1.20
2019-04-30T20:46:32.069Z,1.30
2019-04-30T20:48:49.534Z,1.20
2019-04-30T20:51:15.941Z,1.23
2019-04-30T20:53:42.393Z,1.30
2019-04-30T20:56:09.232Z,1.43
2019-04-30T21:01:06.323Z,1.10
2019-04-30T21:03:29.574Z,1.20
2019-04-30T21:05:54.123Z,1.47
2019-04-30T21:08:20.493Z,1.10
2019-04-30T21:10:46.847Z,1.20
2019-04-30T21:13:13.263Z,1.07
2019-04-30T21:15:39.629Z,1.10
2019-04-30T21:18:05.879Z,1.10
2019-04-30T21:20:32.215Z,1.13
2019-04-30T21:22:59.660Z,1.17
2019-04-30T21:25:24.982Z,1.00
2019-04-30T21:27:51.325Z,1.20
2019-04-30T21:30:17.681Z,1.10
2019-04-30T21:32:44.091Z,1.10
2019-04-30T21:35:10.445Z,1.00
2019-04-30T21:37:36.784Z,1.00
2019-04-30T21:40:03.139Z,1.10
2019-04-30T21:42:29.530Z,1.10
2019-04-30T21:44:55.964Z,1.10
2019-04-30T21:47:22.293Z,1.10
2019-04-30T21:49:48.665Z,1.10
2019-04-30T21:52:15.041Z,1.00
2019-04-30T21:57:07.750Z,1.07
2019-04-30T21:59:34.124Z,1.10
2019-04-30T22:02:00.455Z,1.07
2019-04-30T22:04:26.814Z,1.10
2019-04-30T22:06:53.225Z,1.00
2019-04-30T22:09:19.576Z,1.00
2019-04-30T22:11:45.953Z,1.03
2019-04-30T22:14:12.321Z,1.20
2019-04-30T22:16:39.826Z,0.90
2019-04-30T22:19:04.979Z,0.93
2019-04-30T22:21:31.379Z,1.03
2019-04-30T22:23:57.765Z,1.00
2019-04-30T22:26:24.148Z,1.10
2019-04-30T22:28:50.503Z,1.23
2019-04-30T22:31:16.850Z,1.40
2019-04-30T22:33:43.223Z,1.03
2019-04-30T22:36:10.880Z,1.10
2019-04-30T22:38:35.878Z,1.00
2019-04-30T22:41:02.241Z,0.90
2019-04-30T22:43:28.590Z,1.00
2019-04-30T22:45:54.972Z,1.10
2019-04-30T22:48:21.302Z,1.00
2019-04-30T22:53:13.958Z,1.00
2019-04-30T22:55:40.357Z,0.90
2019-04-30T22:58:06.676Z,0.90
2019-04-30T23:00:33.052Z,1.00
2019-04-30T23:02:59.446Z,0.90
2019-04-30T23:05:25.738Z,1.00
2019-04-30T23:07:52.071Z,1.07
2019-04-30T23:10:18.406Z,1.17
2019-04-30T23:12:44.735Z,1.00
2019-04-30T23:15:11.069Z,0.90
2019-04-30T23:17:37.444Z,1.00
2019-04-30T23:20:03.806Z,0.90
2019-04-30T23:22:30.136Z,0.90
2019-04-30T23:27:22.869Z,1.03
2019-04-30T23:29:49.195Z,1.20
2019-04-30T23:32:15.571Z,1.20
2019-04-30T23:34:41.912Z,0.97
2019-04-30T23:37:08.246Z,1.00
2019-04-30T23:39:34.628Z,0.90
2019-04-30T23:42:00.981Z,1.00
2019-04-30T23:44:27.417Z,1.00
2019-04-30T23:46:53.767Z,1.00
2019-04-30T23:49:20.140Z,0.90
2019-04-30T23:51:46.472Z,1.10
2019-04-30T23:54:12.826Z,1.00
2019-04-30T23:56:39.196Z,0.90
2019-04-30T23:59:05.652Z,0.90
